sensor_id;sensor_type;location;lat;lon;timestamp;temperature;humidity
75281;HTU21D;63874;47.230;39.620;2023-02-01T00:00:20;2.67;84.45
75281;HTU21D;63874;47.230;39.620;2023-02-01T00:02:46;2.67;84.45
75281;HTU21D;63874;47.230;39.620;2023-02-01T00:05:12;2.69;84.55
75281;HTU21D;63874;47.230;39.620;2023-02-01T00:07:38;2.69;84.39
75281;HTU21D;63874;47.230;39.620;2023-02-01T00:10:05;2.69;84.45
75281;HTU21D;63874;47.230;39.620;2023-02-01T00:12:32;2.71;84.33
75281;HTU21D;63874;47.230;39.620;2023-02-01T00:14:57;2.72;84.26
75281;HTU21D;63874;47.230;39.620;2023-02-01T00:17:23;2.75;84.48
75281;HTU21D;63874;47.230;39.620;2023-02-01T00:19:49;2.74;84.27
75281;HTU21D;63874;47.230;39.620;2023-02-01T00:22:15;2.75;84.32
75281;HTU21D;63874;47.230;39.620;2023-02-01T00:24:41;2.78;84.17
75281;HTU21D;63874;47.230;39.620;2023-02-01T00:27:06;2.79;84.10
75281;HTU21D;63874;47.230;39.620;2023-02-01T00:29:32;2.80;84.10
75281;HTU21D;63874;47.230;39.620;2023-02-01T00:31:58;2.81;84.10
75281;HTU21D;63874;47.230;39.620;2023-02-01T00:34:24;2.84;84.00
75281;HTU21D;63874;47.230;39.620;2023-02-01T00:36:50;2.84;83.90
75281;HTU21D;63874;47.230;39.620;2023-02-01T00:39:16;2.84;83.82
75281;HTU21D;63874;47.230;39.620;2023-02-01T00:41:42;2.86;83.45
75281;HTU21D;63874;47.230;39.620;2023-02-01T00:44:08;2.83;83.36
75281;HTU21D;63874;47.230;39.620;2023-02-01T00:46:34;2.82;83.46
75281;HTU21D;63874;47.230;39.620;2023-02-01T00:49:00;2.75;83.32
75281;HTU21D;63874;47.230;39.620;2023-02-01T00:51:28;2.69;83.45
75281;HTU21D;63874;47.230;39.620;2023-02-01T00:53:55;2.68;83.69
75281;HTU21D;63874;47.230;39.620;2023-02-01T00:56:21;2.69;83.69
75281;HTU21D;63874;47.230;39.620;2023-02-01T00:58:47;2.71;83.35
75281;HTU21D;63874;47.230;39.620;2023-02-01T01:01:17;2.67;83.21
75281;HTU21D;63874;47.230;39.620;2023-02-01T01:03:46;2.64;83.18
75281;HTU21D;63874;47.230;39.620;2023-02-01T01:06:15;2.62;83.20
75281;HTU21D;63874;47.230;39.620;2023-02-01T01:08:42;2.57;83.45
75281;HTU21D;63874;47.230;39.620;2023-02-01T01:11:11;2.58;83.47
75281;HTU21D;63874;47.230;39.620;2023-02-01T01:13:37;2.56;83.52
75281;HTU21D;63874;47.230;39.620;2023-02-01T01:16:05;2.56;83.64
75281;HTU21D;63874;47.230;39.620;2023-02-01T01:18:32;2.56;83.61
75281;HTU21D;63874;47.230;39.620;2023-02-01T01:20:58;2.57;83.61
75281;HTU21D;63874;47.230;39.620;2023-02-01T01:23:24;2.58;83.65
75281;HTU21D;63874;47.230;39.620;2023-02-01T01:25:50;2.60;83.52
75281;HTU21D;63874;47.230;39.620;2023-02-01T01:28:16;2.57;83.59
75281;HTU21D;63874;47.230;39.620;2023-02-01T01:30:42;2.54;83.38
75281;HTU21D;63874;47.230;39.620;2023-02-01T01:33:09;2.52;83.52
75281;HTU21D;63874;47.230;39.620;2023-02-01T01:35:35;2.47;83.63
75281;HTU21D;63874;47.230;39.620;2023-02-01T01:38:02;2.43;83.78
75281;HTU21D;63874;47.230;39.620;2023-02-01T01:40:28;2.31;83.86
75281;HTU21D;63874;47.230;39.620;2023-02-01T01:42:55;2.29;84.18
75281;HTU21D;63874;47.230;39.620;2023-02-01T01:45:34;2.30;84.53
75281;HTU21D;63874;47.230;39.620;2023-02-01T01:48:05;2.29;84.58
75281;HTU21D;63874;47.230;39.620;2023-02-01T01:50:44;2.23;84.67
75281;HTU21D;63874;47.230;39.620;2023-02-01T01:53:20;2.23;84.85
75281;HTU21D;63874;47.230;39.620;2023-02-01T01:55:48;2.25;84.99
75281;HTU21D;63874;47.230;39.620;2023-02-01T01:58:23;2.22;85.00
75281;HTU21D;63874;47.230;39.620;2023-02-01T02:00:51;2.16;85.19
75281;HTU21D;63874;47.230;39.620;2023-02-01T02:03:25;2.17;85.28
75281;HTU21D;63874;47.230;39.620;2023-02-01T02:05:55;2.25;85.48
75281;HTU21D;63874;47.230;39.620;2023-02-01T02:08:25;2.31;85.42
75281;HTU21D;63874;47.230;39.620;2023-02-01T02:10:53;2.32;85.15
75281;HTU21D;63874;47.230;39.620;2023-02-01T02:13:32;2.29;85.20
75281;HTU21D;63874;47.230;39.620;2023-02-01T02:16:09;2.31;85.15
75281;HTU21D;63874;47.230;39.620;2023-02-01T02:27:05;2.25;85.48
75281;HTU21D;63874;47.230;39.620;2023-02-01T02:38:18;2.34;85.32
75281;HTU21D;63874;47.230;39.620;2023-02-01T02:40:49;2.36;85.23
75281;HTU21D;63874;47.230;39.620;2023-02-01T02:46:21;2.31;85.38
75281;HTU21D;63874;47.230;39.620;2023-02-01T02:49:11;2.34;85.43
75281;HTU21D;63874;47.230;39.620;2023-02-01T02:51:52;2.35;85.29
75281;HTU21D;63874;47.230;39.620;2023-02-01T02:54:41;2.27;85.41
75281;HTU21D;63874;47.230;39.620;2023-02-01T02:57:17;2.29;85.41
75281;HTU21D;63874;47.230;39.620;2023-02-01T03:00:05;2.31;85.37
75281;HTU21D;63874;47.230;39.620;2023-02-01T03:02:51;2.30;85.38
75281;HTU21D;63874;47.230;39.620;2023-02-01T03:05:39;2.35;85.35
75281;HTU21D;63874;47.230;39.620;2023-02-01T03:08:16;2.35;85.26
75281;HTU21D;63874;47.230;39.620;2023-02-01T03:18:33;2.39;85.11
75281;HTU21D;63874;47.230;39.620;2023-02-01T03:21:06;2.39;85.26
75281;HTU21D;63874;47.230;39.620;2023-02-01T03:23:35;2.39;85.27
75281;HTU21D;63874;47.230;39.620;2023-02-01T03:26:07;2.43;85.16
75281;HTU21D;63874;47.230;39.620;2023-02-01T03:28:35;2.46;84.88
75281;HTU21D;63874;47.230;39.620;2023-02-01T03:31:03;2.47;84.71
75281;HTU21D;63874;47.230;39.620;2023-02-01T03:33:28;2.45;84.72
75281;HTU21D;63874;47.230;39.620;2023-02-01T03:36:05;2.39;84.68
75281;HTU21D;63874;47.230;39.620;2023-02-01T03:38:46;2.38;84.95
75281;HTU21D;63874;47.230;39.620;2023-02-01T03:41:53;2.37;84.90
75281;HTU21D;63874;47.230;39.620;2023-02-01T03:44:32;2.36;85.00
75281;HTU21D;63874;47.230;39.620;2023-02-01T03:50:08;2.37;84.93
75281;HTU21D;63874;47.230;39.620;2023-02-01T03:52:41;2.36;85.00
75281;HTU21D;63874;47.230;39.620;2023-02-01T03:55:10;2.36;85.12
75281;HTU21D;63874;47.230;39.620;2023-02-01T03:57:43;2.39;85.09
75281;HTU21D;63874;47.230;39.620;2023-02-01T04:00:19;2.42;85.05
75281;HTU21D;63874;47.230;39.620;2023-02-01T04:02:45;2.47;84.84
75281;HTU21D;63874;47.230;39.620;2023-02-01T04:05:11;2.49;84.76
75281;HTU21D;63874;47.230;39.620;2023-02-01T04:07:44;2.46;84.71
75281;HTU21D;63874;47.230;39.620;2023-02-01T04:10:10;2.45;84.88
75281;HTU21D;63874;47.230;39.620;2023-02-01T04:12:36;2.44;84.82
75281;HTU21D;63874;47.230;39.620;2023-02-01T04:15:02;2.45;84.90
75281;HTU21D;63874;47.230;39.620;2023-02-01T04:17:29;2.44;84.80
75281;HTU21D;63874;47.230;39.620;2023-02-01T04:19:54;2.44;84.76
75281;HTU21D;63874;47.230;39.620;2023-02-01T04:22:20;2.43;84.60
75281;HTU21D;63874;47.230;39.620;2023-02-01T04:24:46;2.42;84.68
75281;HTU21D;63874;47.230;39.620;2023-02-01T04:27:12;2.45;84.71
75281;HTU21D;63874;47.230;39.620;2023-02-01T04:29:38;2.47;84.60
75281;HTU21D;63874;47.230;39.620;2023-02-01T04:32:04;2.52;84.56
75281;HTU21D;63874;47.230;39.620;2023-02-01T04:34:30;2.52;84.37
75281;HTU21D;63874;47.230;39.620;2023-02-01T04:36:56;2.51;84.35
75281;HTU21D;63874;47.230;39.620;2023-02-01T04:39:22;2.50;84.38
75281;HTU21D;63874;47.230;39.620;2023-02-01T04:41:48;2.54;84.42
75281;HTU21D;63874;47.230;39.620;2023-02-01T04:44:16;2.54;84.26
75281;HTU21D;63874;47.230;39.620;2023-02-01T04:46:43;2.54;84.25
75281;HTU21D;63874;47.230;39.620;2023-02-01T04:49:10;2.57;84.19
75281;HTU21D;63874;47.230;39.620;2023-02-01T04:51:36;2.56;84.18
75281;HTU21D;63874;47.230;39.620;2023-02-01T04:54:03;2.60;84.26
75281;HTU21D;63874;47.230;39.620;2023-02-01T04:56:29;2.62;84.23
75281;HTU21D;63874;47.230;39.620;2023-02-01T04:58:54;2.67;84.34
75281;HTU21D;63874;47.230;39.620;2023-02-01T05:01:21;2.69;84.11
75281;HTU21D;63874;47.230;39.620;2023-02-01T05:03:47;2.70;84.12
75281;HTU21D;63874;47.230;39.620;2023-02-01T05:06:13;2.72;84.09
75281;HTU21D;63874;47.230;39.620;2023-02-01T05:08:39;2.75;84.04
75281;HTU21D;63874;47.230;39.620;2023-02-01T05:11:05;2.74;83.97
75281;HTU21D;63874;47.230;39.620;2023-02-01T05:13:31;2.75;84.06
75281;HTU21D;63874;47.230;39.620;2023-02-01T05:16:16;2.81;84.00
75281;HTU21D;63874;47.230;39.620;2023-02-01T05:18:42;2.83;83.84
75281;HTU21D;63874;47.230;39.620;2023-02-01T05:21:08;2.87;83.42
75281;HTU21D;63874;47.230;39.620;2023-02-01T05:23:34;2.87;83.25
75281;HTU21D;63874;47.230;39.620;2023-02-01T05:26:19;2.85;83.21
75281;HTU21D;63874;47.230;39.620;2023-02-01T05:28:45;2.85;83.40
75281;HTU21D;63874;47.230;39.620;2023-02-01T05:31:11;2.86;83.37
75281;HTU21D;63874;47.230;39.620;2023-02-01T05:33:37;2.85;83.38
75281;HTU21D;63874;47.230;39.620;2023-02-01T05:36:03;2.88;83.39
75281;HTU21D;63874;47.230;39.620;2023-02-01T05:38:29;2.94;83.43
75281;HTU21D;63874;47.230;39.620;2023-02-01T05:40:55;2.99;83.29
75281;HTU21D;63874;47.230;39.620;2023-02-01T05:43:21;3.00;83.27
75281;HTU21D;63874;47.230;39.620;2023-02-01T05:45:47;3.04;83.13
75281;HTU21D;63874;47.230;39.620;2023-02-01T05:48:13;3.09;82.59
75281;HTU21D;63874;47.230;39.620;2023-02-01T05:50:39;3.06;82.62
75281;HTU21D;63874;47.230;39.620;2023-02-01T05:53:08;3.05;82.62
75281;HTU21D;63874;47.230;39.620;2023-02-01T05:55:34;3.08;82.16
75281;HTU21D;63874;47.230;39.620;2023-02-01T05:58:00;3.09;81.78
75281;HTU21D;63874;47.230;39.620;2023-02-01T06:00:25;3.09;81.78
75281;HTU21D;63874;47.230;39.620;2023-02-01T06:02:51;3.10;81.72
75281;HTU21D;63874;47.230;39.620;2023-02-01T06:05:18;3.11;81.68
75281;HTU21D;63874;47.230;39.620;2023-02-01T06:07:43;3.15;81.68
75281;HTU21D;63874;47.230;39.620;2023-02-01T06:10:09;3.17;81.29
75281;HTU21D;63874;47.230;39.620;2023-02-01T06:12:35;3.13;81.40
75281;HTU21D;63874;47.230;39.620;2023-02-01T06:15:01;3.10;81.68
75281;HTU21D;63874;47.230;39.620;2023-02-01T06:17:27;3.14;81.81
75281;HTU21D;63874;47.230;39.620;2023-02-01T06:19:53;3.18;81.57
75281;HTU21D;63874;47.230;39.620;2023-02-01T06:22:19;3.24;81.07
75281;HTU21D;63874;47.230;39.620;2023-02-01T06:24:45;3.23;80.81
75281;HTU21D;63874;47.230;39.620;2023-02-01T06:27:11;3.24;80.98
75281;HTU21D;63874;47.230;39.620;2023-02-01T06:29:38;3.27;81.09
75281;HTU21D;63874;47.230;39.620;2023-02-01T06:32:04;3.30;81.04
75281;HTU21D;63874;47.230;39.620;2023-02-01T06:34:30;3.30;81.07
75281;HTU21D;63874;47.230;39.620;2023-02-01T06:36:56;3.34;80.58
75281;HTU21D;63874;47.230;39.620;2023-02-01T06:39:23;3.35;80.62
75281;HTU21D;63874;47.230;39.620;2023-02-01T06:41:49;3.34;80.66
75281;HTU21D;63874;47.230;39.620;2023-02-01T06:44:15;3.36;80.82
75281;HTU21D;63874;47.230;39.620;2023-02-01T06:46:41;3.43;80.57
75281;HTU21D;63874;47.230;39.620;2023-02-01T06:49:07;3.45;80.43
75281;HTU21D;63874;47.230;39.620;2023-02-01T06:51:34;3.46;80.33
75281;HTU21D;63874;47.230;39.620;2023-02-01T06:54:00;3.50;80.32
75281;HTU21D;63874;47.230;39.620;2023-02-01T06:56:26;3.56;80.27
75281;HTU21D;63874;47.230;39.620;2023-02-01T06:58:53;3.58;80.05
75281;HTU21D;63874;47.230;39.620;2023-02-01T07:01:19;3.59;80.17
75281;HTU21D;63874;47.230;39.620;2023-02-01T07:03:49;3.60;80.28
75281;HTU21D;63874;47.230;39.620;2023-02-01T07:06:17;3.59;79.73
75281;HTU21D;63874;47.230;39.620;2023-02-01T07:08:43;3.59;80.04
75281;HTU21D;63874;47.230;39.620;2023-02-01T07:11:11;3.60;79.97
75281;HTU21D;63874;47.230;39.620;2023-02-01T07:13:38;3.61;79.89
75281;HTU21D;63874;47.230;39.620;2023-02-01T07:16:07;3.62;79.72
75281;HTU21D;63874;47.230;39.620;2023-02-01T07:18:34;3.63;79.87
75281;HTU21D;63874;47.230;39.620;2023-02-01T07:21:00;3.68;79.85
75281;HTU21D;63874;47.230;39.620;2023-02-01T07:23:27;3.72;79.75
75281;HTU21D;63874;47.230;39.620;2023-02-01T07:25:57;3.82;79.19
75281;HTU21D;63874;47.230;39.620;2023-02-01T07:28:24;3.85;78.98
75281;HTU21D;63874;47.230;39.620;2023-02-01T07:30:51;3.89;79.03
75281;HTU21D;63874;47.230;39.620;2023-02-01T07:33:22;3.92;79.14
75281;HTU21D;63874;47.230;39.620;2023-02-01T07:35:49;3.99;79.09
75281;HTU21D;63874;47.230;39.620;2023-02-01T07:38:15;4.02;78.95
75281;HTU21D;63874;47.230;39.620;2023-02-01T07:40:41;4.05;78.91
75281;HTU21D;63874;47.230;39.620;2023-02-01T07:43:07;4.13;78.57
75281;HTU21D;63874;47.230;39.620;2023-02-01T07:45:35;4.18;77.26
75281;HTU21D;63874;47.230;39.620;2023-02-01T07:48:01;4.10;77.42
75281;HTU21D;63874;47.230;39.620;2023-02-01T07:50:28;4.04;76.70
75281;HTU21D;63874;47.230;39.620;2023-02-01T07:52:54;3.98;76.49
75281;HTU21D;63874;47.230;39.620;2023-02-01T07:55:21;3.92;76.97
75281;HTU21D;63874;47.230;39.620;2023-02-01T07:57:47;3.95;77.18
75281;HTU21D;63874;47.230;39.620;2023-02-01T08:00:13;3.99;77.24
75281;HTU21D;63874;47.230;39.620;2023-02-01T08:02:58;3.95;77.32
75281;HTU21D;63874;47.230;39.620;2023-02-01T08:05:24;3.90;77.37
75281;HTU21D;63874;47.230;39.620;2023-02-01T08:07:50;3.86;77.62
75281;HTU21D;63874;47.230;39.620;2023-02-01T08:10:17;3.89;77.63
75281;HTU21D;63874;47.230;39.620;2023-02-01T08:12:44;3.93;77.69
75281;HTU21D;63874;47.230;39.620;2023-02-01T08:15:14;3.94;77.65
75281;HTU21D;63874;47.230;39.620;2023-02-01T08:17:47;3.93;77.82
75281;HTU21D;63874;47.230;39.620;2023-02-01T08:20:13;3.97;77.60
75281;HTU21D;63874;47.230;39.620;2023-02-01T08:22:39;4.00;77.24
75281;HTU21D;63874;47.230;39.620;2023-02-01T08:25:06;3.99;77.21
75281;HTU21D;63874;47.230;39.620;2023-02-01T08:27:36;4.00;77.18
75281;HTU21D;63874;47.230;39.620;2023-02-01T08:30:02;4.00;77.01
75281;HTU21D;63874;47.230;39.620;2023-02-01T08:32:28;3.93;76.94
75281;HTU21D;63874;47.230;39.620;2023-02-01T08:34:54;3.91;77.21
75281;HTU21D;63874;47.230;39.620;2023-02-01T08:37:20;3.88;77.32
75281;HTU21D;63874;47.230;39.620;2023-02-01T08:39:46;3.80;77.22
75281;HTU21D;63874;47.230;39.620;2023-02-01T08:42:12;3.75;77.36
75281;HTU21D;63874;47.230;39.620;2023-02-01T08:44:57;3.74;77.37
75281;HTU21D;63874;47.230;39.620;2023-02-01T08:47:22;3.74;77.46
75281;HTU21D;63874;47.230;39.620;2023-02-01T08:49:48;3.72;77.47
75281;HTU21D;63874;47.230;39.620;2023-02-01T08:52:14;3.73;77.44
75281;HTU21D;63874;47.230;39.620;2023-02-01T08:54:40;3.65;77.15
75281;HTU21D;63874;47.230;39.620;2023-02-01T08:57:07;3.58;77.05
75281;HTU21D;63874;47.230;39.620;2023-02-01T08:59:35;3.45;76.99
75281;HTU21D;63874;47.230;39.620;2023-02-01T09:02:01;3.35;77.18
75281;HTU21D;63874;47.230;39.620;2023-02-01T09:04:26;3.25;77.41
75281;HTU21D;63874;47.230;39.620;2023-02-01T09:06:52;3.17;77.69
75281;HTU21D;63874;47.230;39.620;2023-02-01T09:09:24;3.12;77.72
75281;HTU21D;63874;47.230;39.620;2023-02-01T09:11:50;3.10;77.82
75281;HTU21D;63874;47.230;39.620;2023-02-01T09:14:16;3.04;77.78
75281;HTU21D;63874;47.230;39.620;2023-02-01T09:16:42;2.96;77.82
75281;HTU21D;63874;47.230;39.620;2023-02-01T09:19:08;2.96;77.92
75281;HTU21D;63874;47.230;39.620;2023-02-01T09:21:34;2.94;77.89
75281;HTU21D;63874;47.230;39.620;2023-02-01T09:24:00;2.85;78.09
75281;HTU21D;63874;47.230;39.620;2023-02-01T09:26:27;2.84;78.18
75281;HTU21D;63874;47.230;39.620;2023-02-01T09:28:53;2.84;78.18
75281;HTU21D;63874;47.230;39.620;2023-02-01T09:31:19;2.83;78.08
75281;HTU21D;63874;47.230;39.620;2023-02-01T09:33:45;2.81;78.14
75281;HTU21D;63874;47.230;39.620;2023-02-01T09:36:10;2.76;78.34
75281;HTU21D;63874;47.230;39.620;2023-02-01T09:38:36;2.76;78.52
75281;HTU21D;63874;47.230;39.620;2023-02-01T09:46:42;2.72;78.77
75281;HTU21D;63874;47.230;39.620;2023-02-01T09:49:27;2.75;78.80
75281;HTU21D;63874;47.230;39.620;2023-02-01T09:51:55;2.82;78.53
75281;HTU21D;63874;47.230;39.620;2023-02-01T09:54:27;2.85;78.34
75281;HTU21D;63874;47.230;39.620;2023-02-01T09:57:18;2.90;78.31
75281;HTU21D;63874;47.230;39.620;2023-02-01T09:59:51;2.97;78.13
75281;HTU21D;63874;47.230;39.620;2023-02-01T10:02:22;3.03;78.15
75281;HTU21D;63874;47.230;39.620;2023-02-01T10:04:49;3.11;78.09
75281;HTU21D;63874;47.230;39.620;2023-02-01T10:16:10;3.27;77.75
75281;HTU21D;63874;47.230;39.620;2023-02-01T10:21:57;3.13;77.76
75281;HTU21D;63874;47.230;39.620;2023-02-01T10:27:25;3.18;78.08
75281;HTU21D;63874;47.230;39.620;2023-02-01T10:29:58;3.25;78.11
75281;HTU21D;63874;47.230;39.620;2023-02-01T10:32:33;3.29;77.78
75281;HTU21D;63874;47.230;39.620;2023-02-01T10:35:08;3.25;77.57
75281;HTU21D;63874;47.230;39.620;2023-02-01T10:37:35;3.19;77.54
75281;HTU21D;63874;47.230;39.620;2023-02-01T10:42:39;3.12;77.69
75281;HTU21D;63874;47.230;39.620;2023-02-01T10:45:06;3.14;77.63
75281;HTU21D;63874;47.230;39.620;2023-02-01T10:47:32;3.17;77.64
75281;HTU21D;63874;47.230;39.620;2023-02-01T10:50:02;3.25;77.47
75281;HTU21D;63874;47.230;39.620;2023-02-01T10:52:49;3.20;77.40
75281;HTU21D;63874;47.230;39.620;2023-02-01T10:55:27;3.12;77.14
75281;HTU21D;63874;47.230;39.620;2023-02-01T10:57:58;3.05;77.24
75281;HTU21D;63874;47.230;39.620;2023-02-01T11:00:24;3.04;77.34
75281;HTU21D;63874;47.230;39.620;2023-02-01T11:02:50;3.02;77.38
75281;HTU21D;63874;47.230;39.620;2023-02-01T11:05:16;3.05;77.26
75281;HTU21D;63874;47.230;39.620;2023-02-01T11:07:50;3.08;77.45
75281;HTU21D;63874;47.230;39.620;2023-02-01T11:10:39;3.13;77.47
75281;HTU21D;63874;47.230;39.620;2023-02-01T11:13:15;3.16;77.56
75281;HTU21D;63874;47.230;39.620;2023-02-01T11:15:45;3.15;77.56
75281;HTU21D;63874;47.230;39.620;2023-02-01T11:18:19;3.13;77.67
75281;HTU21D;63874;47.230;39.620;2023-02-01T11:20:46;3.15;77.81
75281;HTU21D;63874;47.230;39.620;2023-02-01T11:23:43;3.21;77.80
75281;HTU21D;63874;47.230;39.620;2023-02-01T11:28:39;3.24;77.50
75281;HTU21D;63874;47.230;39.620;2023-02-01T11:31:11;3.25;77.56
75281;HTU21D;63874;47.230;39.620;2023-02-01T11:33:49;3.27;77.57
75281;HTU21D;63874;47.230;39.620;2023-02-01T11:36:18;3.28;77.44
75281;HTU21D;63874;47.230;39.620;2023-02-01T11:41:35;3.33;77.56
75281;HTU21D;63874;47.230;39.620;2023-02-01T11:44:20;3.40;77.47
75281;HTU21D;63874;47.230;39.620;2023-02-01T11:46:47;3.46;77.24
75281;HTU21D;63874;47.230;39.620;2023-02-01T11:49:34;3.53;77.11
75281;HTU21D;63874;47.230;39.620;2023-02-01T11:54:40;3.56;76.49
75281;HTU21D;63874;47.230;39.620;2023-02-01T12:03:33;3.34;76.41
75281;HTU21D;63874;47.230;39.620;2023-02-01T12:06:23;3.33;76.76
75281;HTU21D;63874;47.230;39.620;2023-02-01T12:11:40;3.40;77.02
75281;HTU21D;63874;47.230;39.620;2023-02-01T12:14:17;3.46;76.78
75281;HTU21D;63874;47.230;39.620;2023-02-01T12:17:22;3.64;76.75
75281;HTU21D;63874;47.230;39.620;2023-02-01T12:41:10;3.43;76.30
75281;HTU21D;63874;47.230;39.620;2023-02-01T12:46:17;3.30;76.58
75281;HTU21D;63874;47.230;39.620;2023-02-01T12:48:49;3.26;76.59
75281;HTU21D;63874;47.230;39.620;2023-02-01T12:51:21;3.21;76.64
75281;HTU21D;63874;47.230;39.620;2023-02-01T12:57:03;3.20;76.82
75281;HTU21D;63874;47.230;39.620;2023-02-01T12:59:38;3.24;76.98
75281;HTU21D;63874;47.230;39.620;2023-02-01T13:05:02;3.25;76.65
75281;HTU21D;63874;47.230;39.620;2023-02-01T13:07:41;3.24;76.76
75281;HTU21D;63874;47.230;39.620;2023-02-01T13:12:54;3.24;76.63
75281;HTU21D;63874;47.230;39.620;2023-02-01T13:16:11;3.24;76.60
75281;HTU21D;63874;47.230;39.620;2023-02-01T13:18:42;3.19;76.40
75281;HTU21D;63874;47.230;39.620;2023-02-01T13:21:16;3.09;76.53
75281;HTU21D;63874;47.230;39.620;2023-02-01T13:23:46;3.02;76.76
75281;HTU21D;63874;47.230;39.620;2023-02-01T13:26:12;3.00;76.78
75281;HTU21D;63874;47.230;39.620;2023-02-01T13:28:47;2.98;76.82
75281;HTU21D;63874;47.230;39.620;2023-02-01T13:42:23;2.91;77.47
75281;HTU21D;63874;47.230;39.620;2023-02-01T13:44:55;2.94;77.55
75281;HTU21D;63874;47.230;39.620;2023-02-01T13:47:31;2.97;77.53
75281;HTU21D;63874;47.230;39.620;2023-02-01T13:50:01;3.00;77.47
75281;HTU21D;63874;47.230;39.620;2023-02-01T13:57:41;3.05;77.46
75281;HTU21D;63874;47.230;39.620;2023-02-01T14:00:26;3.09;77.47
75281;HTU21D;63874;47.230;39.620;2023-02-01T14:16:10;3.01;77.30
75281;HTU21D;63874;47.230;39.620;2023-02-01T14:21:18;2.95;77.42
75281;HTU21D;63874;47.230;39.620;2023-02-01T14:26:42;2.89;77.34
75281;HTU21D;63874;47.230;39.620;2023-02-01T14:34:40;2.79;77.71
75281;HTU21D;63874;47.230;39.620;2023-02-01T14:53:22;2.65;78.31
75281;HTU21D;63874;47.230;39.620;2023-02-01T14:56:00;2.65;78.37
75281;HTU21D;63874;47.230;39.620;2023-02-01T15:01:29;2.69;78.46
75281;HTU21D;63874;47.230;39.620;2023-02-01T15:04:17;2.70;78.50
75281;HTU21D;63874;47.230;39.620;2023-02-01T15:06:49;2.74;78.53
75281;HTU21D;63874;47.230;39.620;2023-02-01T15:09:39;2.78;78.54
75281;HTU21D;63874;47.230;39.620;2023-02-01T15:14:40;2.80;78.40
75281;HTU21D;63874;47.230;39.620;2023-02-01T15:17:29;2.81;78.38
75281;HTU21D;63874;47.230;39.620;2023-02-01T15:22:36;2.79;78.43
75281;HTU21D;63874;47.230;39.620;2023-02-01T15:25:02;2.81;78.42
75281;HTU21D;63874;47.230;39.620;2023-02-01T15:27:29;2.76;78.34
75281;HTU21D;63874;47.230;39.620;2023-02-01T15:30:17;2.72;78.63
75281;HTU21D;63874;47.230;39.620;2023-02-01T15:32:44;2.72;78.58
75281;HTU21D;63874;47.230;39.620;2023-02-01T15:38:20;2.67;78.72
75281;HTU21D;63874;47.230;39.620;2023-02-01T15:41:17;2.64;78.85
75281;HTU21D;63874;47.230;39.620;2023-02-01T15:46:28;2.60;78.95
75281;HTU21D;63874;47.230;39.620;2023-02-01T15:48:55;2.62;78.98
75281;HTU21D;63874;47.230;39.620;2023-02-01T15:51:22;2.62;79.07
75281;HTU21D;63874;47.230;39.620;2023-02-01T15:53:54;2.58;79.02
75281;HTU21D;63874;47.230;39.620;2023-02-01T15:56:25;2.58;78.98
75281;HTU21D;63874;47.230;39.620;2023-02-01T15:58:58;2.54;79.01
75281;HTU21D;63874;47.230;39.620;2023-02-01T16:01:24;2.51;79.04
75281;HTU21D;63874;47.230;39.620;2023-02-01T16:06:36;2.47;79.16
75281;HTU21D;63874;47.230;39.620;2023-02-01T16:09:14;2.49;79.17
75281;HTU21D;63874;47.230;39.620;2023-02-01T16:12:02;2.49;79.23
75281;HTU21D;63874;47.230;39.620;2023-02-01T16:14:29;2.44;79.29
75281;HTU21D;63874;47.230;39.620;2023-02-01T16:16:57;2.43;79.37
75281;HTU21D;63874;47.230;39.620;2023-02-01T16:19:24;2.42;79.33
75281;HTU21D;63874;47.230;39.620;2023-02-01T16:21:56;2.45;79.33
75281;HTU21D;63874;47.230;39.620;2023-02-01T16:24:23;2.42;79.31
75281;HTU21D;63874;47.230;39.620;2023-02-01T16:26:51;2.32;79.39
75281;HTU21D;63874;47.230;39.620;2023-02-01T16:29:17;2.34;79.46
75281;HTU21D;63874;47.230;39.620;2023-02-01T16:31:43;2.30;79.50
75281;HTU21D;63874;47.230;39.620;2023-02-01T16:34:14;2.23;79.49
75281;HTU21D;63874;47.230;39.620;2023-02-01T16:36:43;2.22;79.70
75281;HTU21D;63874;47.230;39.620;2023-02-01T16:39:13;2.19;79.76
75281;HTU21D;63874;47.230;39.620;2023-02-01T16:41:39;2.19;79.86
75281;HTU21D;63874;47.230;39.620;2023-02-01T16:44:06;2.21;79.85
75281;HTU21D;63874;47.230;39.620;2023-02-01T16:46:35;2.23;79.79
75281;HTU21D;63874;47.230;39.620;2023-02-01T16:49:05;2.24;79.81
75281;HTU21D;63874;47.230;39.620;2023-02-01T16:51:32;2.26;79.75
75281;HTU21D;63874;47.230;39.620;2023-02-01T16:53:59;2.30;79.73
75281;HTU21D;63874;47.230;39.620;2023-02-01T16:56:30;2.28;79.49
75281;HTU21D;63874;47.230;39.620;2023-02-01T16:58:57;2.26;79.50
75281;HTU21D;63874;47.230;39.620;2023-02-01T17:01:23;2.22;79.62
75281;HTU21D;63874;47.230;39.620;2023-02-01T17:03:49;2.21;79.63
75281;HTU21D;63874;47.230;39.620;2023-02-01T17:06:19;2.20;79.63
75281;HTU21D;63874;47.230;39.620;2023-02-01T17:08:49;2.19;79.55
75281;HTU21D;63874;47.230;39.620;2023-02-01T17:11:16;2.14;79.69
75281;HTU21D;63874;47.230;39.620;2023-02-01T17:13:41;2.13;79.77
75281;HTU21D;63874;47.230;39.620;2023-02-01T17:19:18;2.07;79.97
75281;HTU21D;63874;47.230;39.620;2023-02-01T17:21:47;2.09;80.14
75281;HTU21D;63874;47.230;39.620;2023-02-01T17:24:16;2.07;80.13
75281;HTU21D;63874;47.230;39.620;2023-02-01T17:26:43;2.07;80.18
75281;HTU21D;63874;47.230;39.620;2023-02-01T17:29:10;2.08;80.16
75281;HTU21D;63874;47.230;39.620;2023-02-01T17:31:39;2.10;80.17
75281;HTU21D;63874;47.230;39.620;2023-02-01T17:34:07;2.14;80.17
75281;HTU21D;63874;47.230;39.620;2023-02-01T17:36:33;2.16;80.14
75281;HTU21D;63874;47.230;39.620;2023-02-01T17:39:01;2.19;80.11
75281;HTU21D;63874;47.230;39.620;2023-02-01T17:41:27;2.20;80.14
75281;HTU21D;63874;47.230;39.620;2023-02-01T17:43:53;2.21;80.18
75281;HTU21D;63874;47.230;39.620;2023-02-01T17:46:19;2.21;80.10
75281;HTU21D;63874;47.230;39.620;2023-02-01T17:48:50;2.19;80.23
75281;HTU21D;63874;47.230;39.620;2023-02-01T17:51:16;2.21;80.43
75281;HTU21D;63874;47.230;39.620;2023-02-01T17:53:43;2.20;80.33
75281;HTU21D;63874;47.230;39.620;2023-02-01T17:56:13;2.21;80.46
75281;HTU21D;63874;47.230;39.620;2023-02-01T17:58:40;2.24;80.46
75281;HTU21D;63874;47.230;39.620;2023-02-01T18:01:13;2.23;80.33
75281;HTU21D;63874;47.230;39.620;2023-02-01T18:03:40;2.23;80.38
75281;HTU21D;63874;47.230;39.620;2023-02-01T18:06:12;2.26;80.40
75281;HTU21D;63874;47.230;39.620;2023-02-01T18:08:39;2.29;80.32
75281;HTU21D;63874;47.230;39.620;2023-02-01T18:11:10;2.29;80.24
75281;HTU21D;63874;47.230;39.620;2023-02-01T18:13:37;2.30;80.27
75281;HTU21D;63874;47.230;39.620;2023-02-01T18:16:03;2.34;80.26
75281;HTU21D;63874;47.230;39.620;2023-02-01T18:18:29;2.28;80.13
75281;HTU21D;63874;47.230;39.620;2023-02-01T18:20:58;2.27;80.28
75281;HTU21D;63874;47.230;39.620;2023-02-01T18:23:24;2.27;80.35
75281;HTU21D;63874;47.230;39.620;2023-02-01T18:25:50;2.29;80.37
75281;HTU21D;63874;47.230;39.620;2023-02-01T18:28:18;2.29;80.24
75281;HTU21D;63874;47.230;39.620;2023-02-01T18:30:46;2.29;80.29